createdAt,value
2017-11-21T00:00:18.726Z,7.50
2017-11-21T00:01:24.636Z,7.65
2017-11-21T00:02:30.741Z,6.72
2017-11-21T00:03:36.612Z,7.50
2017-11-21T00:04:42.813Z,6.57
2017-11-21T00:05:48.912Z,6.68
2017-11-21T00:06:55.073Z,7.90
2017-11-21T00:08:01.216Z,6.78
2017-11-21T00:09:07.708Z,8.68
2017-11-21T00:10:13.793Z,7.40
2017-11-21T00:11:24.026Z,7.20
2017-11-21T00:12:30.161Z,7.00
2017-11-21T00:13:36.242Z,7.57
2017-11-21T00:14:42.384Z,6.78
2017-11-21T00:15:50.254Z,7.05
2017-11-21T00:16:57.149Z,7.78
2017-11-21T00:18:03.223Z,7.68
2017-11-21T00:19:09.414Z,6.90
2017-11-21T00:20:15.577Z,7.90
2017-11-21T00:21:21.712Z,7.40
2017-11-21T00:22:33.710Z,7.75
2017-11-21T00:23:39.647Z,7.35
2017-11-21T00:24:45.753Z,7.12
2017-11-21T00:25:52.753Z,7.37
2017-11-21T00:26:58.946Z,7.28
2017-11-21T00:28:04.705Z,7.12
2017-11-21T00:29:10.771Z,6.95
2017-11-21T00:30:16.832Z,8.25
2017-11-21T00:31:22.939Z,7.28
2017-11-21T00:32:34.598Z,7.18
2017-11-21T00:33:40.878Z,7.00
2017-11-21T00:34:46.990Z,7.53
2017-11-21T00:35:53.074Z,6.82
2017-11-21T00:36:59.221Z,7.62
2017-11-21T00:38:10.522Z,9.93
2017-11-21T00:39:16.655Z,7.40
2017-11-21T00:40:28.278Z,7.60
2017-11-21T00:41:35.367Z,7.72
2017-11-21T00:42:41.473Z,7.50
2017-11-21T00:43:47.549Z,7.32
2017-11-21T00:44:53.488Z,7.95
2017-11-21T00:45:59.560Z,8.13
2017-11-21T00:47:09.714Z,7.97
2017-11-21T00:48:15.595Z,7.75
2017-11-21T00:49:21.700Z,7.18
2017-11-21T00:50:27.814Z,8.80
2017-11-21T00:51:33.938Z,7.50
2017-11-21T00:52:40.022Z,7.25
2017-11-21T00:53:46.125Z,8.55
2017-11-21T00:54:52.224Z,7.18
2017-11-21T00:55:58.422Z,8.10
2017-11-21T00:57:04.598Z,7.45
2017-11-21T00:58:10.728Z,8.90
2017-11-21T00:59:16.818Z,8.45
2017-11-21T01:00:22.949Z,8.73
2017-11-21T01:01:39.749Z,8.45
2017-11-21T01:02:45.825Z,7.90
2017-11-21T01:03:51.917Z,8.10
2017-11-21T01:04:58.023Z,8.05
2017-11-21T01:06:04.115Z,9.40
2017-11-21T01:07:10.038Z,8.20
2017-11-21T01:08:16.414Z,8.50
2017-11-21T01:09:22.525Z,7.72
2017-11-21T01:10:28.634Z,7.93
2017-11-21T01:11:34.718Z,7.70
2017-11-21T01:12:40.873Z,7.50
2017-11-21T01:13:46.968Z,7.25
2017-11-21T01:14:53.076Z,7.20
2017-11-21T01:15:59.147Z,7.57
2017-11-21T01:17:05.251Z,8.85
2017-11-21T01:18:11.385Z,7.40
2017-11-21T01:19:17.467Z,8.27
2017-11-21T01:20:23.597Z,7.65
2017-11-21T01:21:29.710Z,7.53
2017-11-21T01:22:35.964Z,7.80
2017-11-21T01:23:42.143Z,8.23
2017-11-21T01:24:48.232Z,7.55
2017-11-21T01:25:56.218Z,7.95
2017-11-21T01:27:02.416Z,8.13
2017-11-21T01:28:09.440Z,8.00
2017-11-21T01:29:15.544Z,7.82
2017-11-21T01:30:21.629Z,7.68
2017-11-21T01:31:27.730Z,8.40
2017-11-21T01:32:33.501Z,7.72
2017-11-21T01:33:39.264Z,7.45
2017-11-21T01:34:45.526Z,8.35
2017-11-21T01:35:51.583Z,8.07
2017-11-21T01:36:57.707Z,8.13
2017-11-21T01:38:03.849Z,8.23
2017-11-21T01:39:09.954Z,7.82
2017-11-21T01:40:16.564Z,8.23
2017-11-21T01:41:22.893Z,8.10
2017-11-21T01:42:29.011Z,8.45
2017-11-21T01:43:35.153Z,7.93
2017-11-21T01:44:41.357Z,8.13
2017-11-21T01:45:48.374Z,8.32
2017-11-21T01:46:54.436Z,8.02
2017-11-21T01:48:04.093Z,7.82
2017-11-21T01:49:09.985Z,8.73
2017-11-21T01:50:16.088Z,8.85
2017-11-21T01:51:22.200Z,8.98
2017-11-21T01:52:28.305Z,8.30
2017-11-21T01:53:34.437Z,8.30
2017-11-21T01:54:40.519Z,8.32
2017-11-21T01:55:46.630Z,7.72
2017-11-21T01:56:52.832Z,8.40
2017-11-21T01:57:58.970Z,7.72
2017-11-21T01:59:05.136Z,8.68
2017-11-21T02:00:11.707Z,7.68
2017-11-21T02:01:17.633Z,7.80
2017-11-21T02:02:23.679Z,8.50
2017-11-21T02:03:29.795Z,7.90
2017-11-21T02:04:35.872Z,9.15
2017-11-21T02:05:46.896Z,9.13
2017-11-21T02:06:53.014Z,7.07
2017-11-21T02:08:00.441Z,8.88
2017-11-21T02:09:06.561Z,8.18
2017-11-21T02:10:12.624Z,8.18
2017-11-21T02:11:18.710Z,8.43
2017-11-21T02:12:24.608Z,8.23
2017-11-21T02:13:31.213Z,8.05
2017-11-21T02:14:37.454Z,8.20
2017-11-21T02:15:43.543Z,7.82
2017-11-21T02:16:49.784Z,8.02
2017-11-21T02:17:56.057Z,8.50
2017-11-21T02:19:01.870Z,7.62
2017-11-21T02:20:07.606Z,8.40
2017-11-21T02:21:13.139Z,7.97
2017-11-21T02:22:18.702Z,8.27
2017-11-21T02:23:24.572Z,8.35
2017-11-21T02:24:29.988Z,10.02
2017-11-21T02:25:35.376Z,7.57
2017-11-21T02:26:41.082Z,8.02
2017-11-21T02:27:46.544Z,7.47
2017-11-21T02:28:51.948Z,7.65
2017-11-21T02:29:57.353Z,7.40
2017-11-21T02:31:02.755Z,8.10
2017-11-21T02:32:08.647Z,7.32
2017-11-21T02:33:14.681Z,7.85
2017-11-21T02:34:20.297Z,7.43
2017-11-21T02:35:25.695Z,7.43
2017-11-21T02:36:31.120Z,7.90
2017-11-21T02:37:36.559Z,8.50
2017-11-21T02:38:41.988Z,8.10
2017-11-21T02:39:51.801Z,8.88
2017-11-21T02:40:57.360Z,8.75
2017-11-21T02:42:03.074Z,8.15
2017-11-21T02:43:11.183Z,8.20
2017-11-21T02:44:16.592Z,8.90
2017-11-21T02:45:21.754Z,7.75
2017-11-21T02:46:27.825Z,8.73
2017-11-21T02:47:33.193Z,9.18
2017-11-21T02:48:38.620Z,8.40
2017-11-21T02:49:44.354Z,8.05
2017-11-21T02:50:54.588Z,7.65
2017-11-21T02:52:00.352Z,8.10
2017-11-21T02:53:06.134Z,8.77
2017-11-21T02:54:11.597Z,8.93
2017-11-21T02:55:17.396Z,7.90
2017-11-21T02:56:23.175Z,8.35
2017-11-21T02:57:28.615Z,7.90
2017-11-21T02:58:39.509Z,8.95
2017-11-21T02:59:44.936Z,8.10
2017-11-21T03:00:56.566Z,8.60
2017-11-21T03:02:02.650Z,7.90
2017-11-21T03:03:08.920Z,7.93
2017-11-21T03:04:15.068Z,8.27
2017-11-21T03:05:21.808Z,8.15
2017-11-21T03:06:27.699Z,8.25
2017-11-21T03:07:33.818Z,7.68
2017-11-21T03:08:39.786Z,7.82
2017-11-21T03:09:45.875Z,7.90
2017-11-21T03:10:55.683Z,7.87
2017-11-21T03:12:01.874Z,7.10
2017-11-21T03:13:07.385Z,8.23
2017-11-21T03:14:12.855Z,7.53
2017-11-21T03:15:18.916Z,8.15
2017-11-21T03:16:24.629Z,7.97
2017-11-21T03:17:31.770Z,7.70
2017-11-21T03:18:37.857Z,7.68
2017-11-21T03:19:43.965Z,8.60
2017-11-21T03:21:00.937Z,7.20
2017-11-21T03:22:17.804Z,7.93
2017-11-21T03:23:35.004Z,8.90
2017-11-21T03:24:51.928Z,8.38
2017-11-21T03:26:14.119Z,8.52
2017-11-21T03:27:19.367Z,7.62
2017-11-21T03:28:36.246Z,8.57
2017-11-21T03:29:41.551Z,7.20
2017-11-21T03:30:47.354Z,8.55
2017-11-21T03:31:53.439Z,8.13
2017-11-21T03:32:59.315Z,8.18
2017-11-21T03:34:05.084Z,8.00
2017-11-21T03:35:11.194Z,7.30
2017-11-21T03:36:16.646Z,8.50
2017-11-21T03:37:22.919Z,7.97
2017-11-21T03:38:28.144Z,8.75
2017-11-21T03:39:34.256Z,9.10
2017-11-21T03:40:41.317Z,8.85
2017-11-21T03:41:48.455Z,9.43
2017-11-21T03:42:54.202Z,8.50
2017-11-21T03:44:00.263Z,9.20
2017-11-21T03:45:06.056Z,9.77
2017-11-21T03:46:12.146Z,8.82
2017-11-21T03:47:18.350Z,9.63
2017-11-21T03:48:24.455Z,10.40
2017-11-21T03:49:30.515Z,8.27
2017-11-21T03:50:36.651Z,8.75
2017-11-21T03:51:43.243Z,9.30
2017-11-21T03:52:48.963Z,9.00
2017-11-21T03:53:55.050Z,9.07
2017-11-21T03:55:01.105Z,8.98
2017-11-21T03:56:07.195Z,8.73
2017-11-21T03:57:13.346Z,9.15
2017-11-21T03:58:19.430Z,8.98
2017-11-21T03:59:25.691Z,9.68
2017-11-21T04:00:31.464Z,10.10
2017-11-21T04:01:39.343Z,9.27
2017-11-21T04:02:45.435Z,8.88
2017-11-21T04:03:51.545Z,9.38
2017-11-21T04:04:58.291Z,8.93
2017-11-21T04:06:04.373Z,10.00
2017-11-21T04:07:10.514Z,9.57
2017-11-21T04:08:16.312Z,9.50
2017-11-21T04:09:23.295Z,8.70
2017-11-21T04:10:29.389Z,9.32
2017-11-21T04:11:35.111Z,8.70
2017-11-21T04:12:40.886Z,9.13
2017-11-21T04:13:46.999Z,9.75
2017-11-21T04:14:53.128Z,9.77
2017-11-21T04:15:59.304Z,9.52
2017-11-21T04:17:05.409Z,10.07
2017-11-21T04:18:11.209Z,9.50
2017-11-21T04:19:17.356Z,9.70
2017-11-21T04:20:23.613Z,9.23
2017-11-21T04:21:33.785Z,9.10
2017-11-21T04:22:40.345Z,9.40
2017-11-21T04:23:46.053Z,10.18
2017-11-21T04:24:55.628Z,8.52
2017-11-21T04:26:01.907Z,9.38
2017-11-21T04:27:08.014Z,10.23
2017-11-21T04:28:14.095Z,8.75
2017-11-21T04:29:20.181Z,8.77
2017-11-21T04:30:26.242Z,9.10
2017-11-21T04:31:32.349Z,9.05
2017-11-21T04:32:37.801Z,9.68
2017-11-21T04:33:43.053Z,8.90
2017-11-21T04:34:49.255Z,8.30
2017-11-21T04:35:55.484Z,8.10
2017-11-21T04:37:01.596Z,9.80
2017-11-21T04:38:07.734Z,9.15
2017-11-21T04:39:13.879Z,9.35
2017-11-21T04:40:19.772Z,9.55
2017-11-21T04:41:25.864Z,8.57
2017-11-21T04:42:31.948Z,9.50
2017-11-21T04:43:37.870Z,8.30
2017-11-21T04:44:44.229Z,9.13
2017-11-21T04:45:50.293Z,9.50
2017-11-21T04:46:56.393Z,8.98
2017-11-21T04:48:02.478Z,8.73
2017-11-21T04:49:08.361Z,10.23
2017-11-21T04:50:14.475Z,10.45
2017-11-21T04:51:20.595Z,10.15
2017-11-21T04:52:26.681Z,9.65
2017-11-21T04:53:32.748Z,10.13
2017-11-21T04:54:38.698Z,10.35
2017-11-21T04:55:44.248Z,11.02
2017-11-21T04:56:50.470Z,10.82
2017-11-21T04:57:56.864Z,11.65
2017-11-21T04:59:02.998Z,10.80
2017-11-21T05:00:08.741Z,14.07
2017-11-21T05:01:13.992Z,11.60
2017-11-21T05:02:20.138Z,12.07
2017-11-21T05:03:26.270Z,13.73
2017-11-21T05:04:32.144Z,13.07
2017-11-21T05:05:38.240Z,16.58
2017-11-21T05:06:43.951Z,12.48
2017-11-21T05:07:50.082Z,12.75
2017-11-21T05:08:56.514Z,13.32
2017-11-21T05:10:02.704Z,14.40
2017-11-21T05:11:09.100Z,12.52
2017-11-21T05:12:15.656Z,13.35
2017-11-21T05:13:23.494Z,12.93
2017-11-21T05:14:30.583Z,11.85
2017-11-21T05:15:36.782Z,12.18
2017-11-21T05:18:37.344Z,10.93
2017-11-21T05:19:43.110Z,12.40
2017-11-21T05:20:48.552Z,12.82
2017-11-21T05:21:54.055Z,12.02
2017-11-21T05:22:59.623Z,14.68
2017-11-21T05:24:05.844Z,13.80
2017-11-21T05:25:11.675Z,10.98
2017-11-21T05:26:17.449Z,15.07
2017-11-21T05:27:23.585Z,14.73
2017-11-21T05:28:29.724Z,11.65
2017-11-21T05:29:35.141Z,11.52
2017-11-21T05:30:40.936Z,13.00
2017-11-21T05:31:47.214Z,15.18
2017-11-21T05:33:04.350Z,12.45
2017-11-21T05:34:10.360Z,12.13
2017-11-21T05:35:16.969Z,12.00
2017-11-21T05:36:22.755Z,11.95
2017-11-21T05:37:29.258Z,12.13
2017-11-21T05:38:35.352Z,11.12
2017-11-21T05:39:41.519Z,13.30
2017-11-21T05:40:47.421Z,10.85
2017-11-21T05:41:53.929Z,12.85
2017-11-21T05:43:00.055Z,11.35
2017-11-21T05:44:06.215Z,11.55
2017-11-21T05:45:12.128Z,10.98
2017-11-21T05:46:18.345Z,12.55
2017-11-21T05:47:24.462Z,9.88
2017-11-21T05:48:30.588Z,12.30
2017-11-21T05:49:40.426Z,12.10
2017-11-21T05:50:47.242Z,11.88
2017-11-21T05:51:52.480Z,12.95
2017-11-21T05:52:58.636Z,11.68
2017-11-21T05:54:04.736Z,13.65
2017-11-21T05:55:10.880Z,16.30
2017-11-21T05:56:16.699Z,12.43
2017-11-21T05:57:22.880Z,14.32
2017-11-21T05:58:29.080Z,12.35
2017-11-21T05:59:35.161Z,14.35
2017-11-21T06:00:40.578Z,16.25
2017-11-21T06:01:46.692Z,13.18
2017-11-21T06:02:52.832Z,16.33
2017-11-21T06:03:58.577Z,15.18
2017-11-21T06:05:04.684Z,16.35
2017-11-21T06:06:10.780Z,13.80
2017-11-21T06:07:16.878Z,17.40
2017-11-21T06:08:23.050Z,16.75
2017-11-21T06:09:29.513Z,14.23
2017-11-21T06:10:35.643Z,15.73
2017-11-21T06:11:41.987Z,13.82
2017-11-21T06:12:48.154Z,15.70
2017-11-21T06:13:54.297Z,16.58
2017-11-21T06:15:00.437Z,15.80
2017-11-21T06:16:06.793Z,15.82
2017-11-21T06:17:12.904Z,16.35
2017-11-21T06:18:19.011Z,15.82
2017-11-21T06:19:25.158Z,16.87
2017-11-21T06:20:31.495Z,15.98
2017-11-21T06:21:37.695Z,17.60
2017-11-21T06:22:43.640Z,15.63
2017-11-21T06:23:49.760Z,15.27
2017-11-21T06:24:56.055Z,14.95
2017-11-21T06:26:02.223Z,13.98
2017-11-21T06:27:08.476Z,13.65
2017-11-21T06:28:14.641Z,13.00
2017-11-21T06:29:20.756Z,12.65
2017-11-21T06:30:26.860Z,11.32
2017-11-21T06:31:32.984Z,11.73
2017-11-21T06:32:39.172Z,13.45
2017-11-21T06:33:45.263Z,13.32
2017-11-21T06:34:55.093Z,13.32
2017-11-21T06:36:01.253Z,14.73
2017-11-21T06:37:07.421Z,12.65
2017-11-21T06:38:13.590Z,14.65
2017-11-21T06:39:20.057Z,19.17
2017-11-21T06:40:26.163Z,18.15
2017-11-21T06:41:32.276Z,13.82
2017-11-21T06:42:39.261Z,12.73
2017-11-21T06:43:46.450Z,13.00
2017-11-21T06:44:53.820Z,23.90
2017-11-21T06:46:01.508Z,20.52
2017-11-21T06:47:08.711Z,17.52
2017-11-21T06:48:16.083Z,15.55
2017-11-21T06:49:23.135Z,17.48
2017-11-21T06:50:32.415Z,15.68
2017-11-21T06:51:38.603Z,16.50
2017-11-21T06:52:45.200Z,14.90
2017-11-21T06:53:51.325Z,16.25
2017-11-21T06:54:57.437Z,15.75
2017-11-21T06:56:03.567Z,14.00
2017-11-21T06:57:09.694Z,15.63
2017-11-21T06:58:15.459Z,16.60
2017-11-21T06:59:21.608Z,13.02
2017-11-21T07:00:27.713Z,13.70
2017-11-21T07:01:33.816Z,13.13
2017-11-21T07:02:44.917Z,13.10
2017-11-21T07:03:51.028Z,15.00
2017-11-21T07:04:58.758Z,14.02
2017-11-21T07:06:05.495Z,12.68
2017-11-21T07:07:11.601Z,14.15
2017-11-21T07:08:17.706Z,13.93
2017-11-21T07:09:29.162Z,12.00
2017-11-21T07:10:35.088Z,14.07
2017-11-21T07:11:41.188Z,13.77
2017-11-21T07:12:47.338Z,15.90
2017-11-21T07:13:53.469Z,15.07
2017-11-21T07:14:59.519Z,14.25
2017-11-21T07:16:05.620Z,13.73
2017-11-21T07:17:11.783Z,15.48
2017-11-21T07:18:17.910Z,13.98
2017-11-21T07:19:24.119Z,14.82
2017-11-21T07:20:30.549Z,12.85
2017-11-21T07:21:36.500Z,13.07
2017-11-21T07:22:42.601Z,11.57
2017-11-21T07:23:48.676Z,14.13
2017-11-21T07:24:54.429Z,15.82
2017-11-21T07:26:00.610Z,13.57
2017-11-21T07:27:06.787Z,14.18
2017-11-21T07:28:12.902Z,13.57
2017-11-21T07:29:18.978Z,13.68
2017-11-21T07:30:25.146Z,14.73
2017-11-21T07:31:31.275Z,15.10
2017-11-21T07:32:37.386Z,15.05
2017-11-21T07:33:43.486Z,18.65
2017-11-21T07:34:49.592Z,13.60
2017-11-21T07:35:55.702Z,14.93
2017-11-21T07:37:01.854Z,14.68
2017-11-21T07:38:07.959Z,13.77
2017-11-21T07:39:14.383Z,14.90
2017-11-21T07:40:20.834Z,14.68
2017-11-21T07:41:26.609Z,13.90
2017-11-21T07:42:33.118Z,15.38
2017-11-21T07:43:39.207Z,14.15
2017-11-21T07:44:45.325Z,13.90
2017-11-21T07:45:51.412Z,12.98
2017-11-21T07:46:57.532Z,12.18
2017-11-21T07:48:03.650Z,14.87
2017-11-21T07:49:09.741Z,16.08
2017-11-21T07:50:16.174Z,14.35
2017-11-21T07:51:22.251Z,14.85
2017-11-21T07:52:28.378Z,15.70
2017-11-21T07:53:34.464Z,16.92
2017-11-21T07:54:40.572Z,14.80
2017-11-21T07:55:46.890Z,13.15
2017-11-21T07:56:52.972Z,14.90
2017-11-21T07:57:59.063Z,14.13
2017-11-21T07:59:05.155Z,15.38
2017-11-21T08:00:11.267Z,14.35
2017-11-21T08:01:17.370Z,14.07
2017-11-21T08:02:23.459Z,15.88
2017-11-21T08:03:29.562Z,14.90
2017-11-21T08:04:35.646Z,15.43
2017-11-21T08:05:41.953Z,12.73
2017-11-21T08:06:47.747Z,13.65
2017-11-21T08:07:59.647Z,13.48
2017-11-21T08:09:07.465Z,12.18
2017-11-21T08:10:12.950Z,12.82
2017-11-21T08:11:18.344Z,12.93
2017-11-21T08:12:24.112Z,12.40
2017-11-21T08:13:35.602Z,13.43
2017-11-21T08:14:41.360Z,14.70
2017-11-21T08:15:47.149Z,13.80
2017-11-21T08:16:53.259Z,13.48
2017-11-21T08:17:59.340Z,13.80
2017-11-21T08:19:05.135Z,12.70
2017-11-21T08:20:10.888Z,12.02
2017-11-21T08:21:16.808Z,13.62
2017-11-21T08:22:23.073Z,13.05
2017-11-21T08:23:29.221Z,13.27
2017-11-21T08:24:35.133Z,14.07
2017-11-21T08:25:41.221Z,11.38
2017-11-21T08:26:46.983Z,10.68
2017-11-21T08:27:52.728Z,12.10
2017-11-21T08:28:58.818Z,11.73
2017-11-21T08:30:04.234Z,11.43
2017-11-21T08:31:10.327Z,10.93
2017-11-21T08:32:16.519Z,12.43
2017-11-21T08:33:22.282Z,10.00
2017-11-21T08:34:28.374Z,9.57
2017-11-21T08:35:34.456Z,10.57
2017-11-21T08:36:40.544Z,9.40
2017-11-21T08:37:46.592Z,8.27
2017-11-21T08:38:52.324Z,10.05
2017-11-21T08:40:02.306Z,8.75
2017-11-21T08:41:08.029Z,8.05
2017-11-21T08:42:14.102Z,8.43
2017-11-21T08:43:20.230Z,10.23
2017-11-21T08:44:26.330Z,8.00
2017-11-21T08:45:39.127Z,6.90
2017-11-21T08:46:45.378Z,7.50
2017-11-21T08:47:51.455Z,6.60
2017-11-21T08:48:57.545Z,7.60
2017-11-21T08:50:03.321Z,9.23
2017-11-21T08:51:09.467Z,6.40
2017-11-21T08:52:15.592Z,6.32
2017-11-21T08:53:21.812Z,5.82
2017-11-21T08:54:27.895Z,6.18
2017-11-21T08:55:33.979Z,5.50
2017-11-21T08:56:40.071Z,5.15
2017-11-21T08:57:46.136Z,5.85
2017-11-21T08:58:52.210Z,4.95
2017-11-21T08:59:58.287Z,5.18
2017-11-21T09:01:04.385Z,4.70
2017-11-21T09:02:10.429Z,5.40
2017-11-21T09:03:16.532Z,5.60
2017-11-21T09:04:22.606Z,5.22
2017-11-21T09:05:28.644Z,4.60
2017-11-21T09:06:34.742Z,4.70
2017-11-21T09:07:40.822Z,4.40
2017-11-21T09:08:46.876Z,4.50
2017-11-21T09:09:52.934Z,4.35
2017-11-21T09:10:58.856Z,3.70
2017-11-21T09:12:04.959Z,3.95
2017-11-21T09:13:11.093Z,3.62
2017-11-21T09:14:17.175Z,3.95
2017-11-21T09:15:23.271Z,3.00
2017-11-21T09:16:29.369Z,4.25
2017-11-21T09:17:35.195Z,4.45
2017-11-21T09:18:41.236Z,3.50
2017-11-21T09:19:47.312Z,3.30
2017-11-21T09:20:53.382Z,3.92
2017-11-21T09:21:59.857Z,3.85
2017-11-21T09:23:05.933Z,4.00
2017-11-21T09:24:12.002Z,3.10
2017-11-21T09:25:20.155Z,3.08
2017-11-21T09:26:26.263Z,3.00
2017-11-21T09:27:32.367Z,3.35
2017-11-21T09:28:38.455Z,5.10
2017-11-21T09:29:47.238Z,5.35
2017-11-21T09:30:55.852Z,6.68
2017-11-21T09:32:03.478Z,6.07
2017-11-21T09:33:09.394Z,3.03
2017-11-21T09:34:15.496Z,2.97
2017-11-21T09:35:21.588Z,4.53
2017-11-21T09:36:27.780Z,2.85
2017-11-21T09:37:33.990Z,2.70
2017-11-21T09:38:40.251Z,3.10
2017-11-21T09:39:46.522Z,2.90
2017-11-21T09:40:52.691Z,2.50
2017-11-21T09:41:58.773Z,3.62
2017-11-21T09:43:04.675Z,3.03
2017-11-21T09:44:10.749Z,3.25
2017-11-21T09:45:16.837Z,3.15
2017-11-21T09:46:22.930Z,2.70
2017-11-21T09:47:29.050Z,2.85
2017-11-21T09:48:35.223Z,2.83
2017-11-21T09:49:41.367Z,2.60
2017-11-21T09:50:47.428Z,2.40
2017-11-21T09:51:53.567Z,2.90
2017-11-21T09:52:59.722Z,3.60
2017-11-21T09:54:09.602Z,3.20
2017-11-21T09:55:15.666Z,2.67
2017-11-21T09:56:21.746Z,3.05
2017-11-21T09:57:27.857Z,3.28
2017-11-21T09:58:33.957Z,2.40
2017-11-21T09:59:40.019Z,2.80
2017-11-21T10:00:46.106Z,2.70
2017-11-21T10:01:52.219Z,2.75
2017-11-21T10:02:58.335Z,3.08
2017-11-21T10:04:04.402Z,2.75
2017-11-21T10:05:10.475Z,2.78
2017-11-21T10:06:16.549Z,3.30
2017-11-21T10:07:22.615Z,2.30
2017-11-21T10:08:31.830Z,2.85
2017-11-21T10:09:37.897Z,4.28
2017-11-21T10:10:44.031Z,2.72
2017-11-21T10:11:54.045Z,2.60
2017-11-21T10:13:06.711Z,3.10
2017-11-21T10:14:13.367Z,3.40
2017-11-21T10:15:19.125Z,2.37
2017-11-21T10:16:24.845Z,2.95
2017-11-21T10:17:30.933Z,3.15
2017-11-21T10:18:37.013Z,2.87
2017-11-21T10:19:42.501Z,2.70
2017-11-21T10:20:48.271Z,4.03
2017-11-21T10:21:53.811Z,3.25
2017-11-21T10:22:59.966Z,2.85
2017-11-21T10:24:05.743Z,2.85
2017-11-21T10:25:11.847Z,3.50
2017-11-21T10:26:17.991Z,2.90
2017-11-21T10:27:23.782Z,2.60
2017-11-21T10:28:29.599Z,2.60
2017-11-21T10:29:35.694Z,2.80
2017-11-21T10:30:41.792Z,2.78
2017-11-21T10:31:47.885Z,2.50
2017-11-21T10:32:54.054Z,3.47
2017-11-21T10:34:00.079Z,3.10
2017-11-21T10:35:06.444Z,4.53
2017-11-21T10:36:12.530Z,3.05
2017-11-21T10:37:18.686Z,3.03
2017-11-21T10:38:24.392Z,2.85
2017-11-21T10:39:30.503Z,3.25
2017-11-21T10:40:36.987Z,3.35
2017-11-21T10:41:43.112Z,2.50
2017-11-21T10:42:49.199Z,3.25
2017-11-21T10:43:54.912Z,2.95
2017-11-21T10:45:01.019Z,3.08
2017-11-21T10:46:12.782Z,2.92
2017-11-21T10:47:18.926Z,3.00
2017-11-21T10:48:25.051Z,2.80
2017-11-21T10:49:31.129Z,2.75
2017-11-21T10:50:37.275Z,3.67
2017-11-21T10:51:43.399Z,2.75
2017-11-21T10:52:49.507Z,2.50
2017-11-21T10:53:55.591Z,3.65
2017-11-21T10:55:08.407Z,3.28
2017-11-21T10:56:14.533Z,2.50
2017-11-21T10:57:20.055Z,2.80
2017-11-21T10:58:25.494Z,2.60
2017-11-21T10:59:31.013Z,3.92
2017-11-21T11:00:36.753Z,2.65
2017-11-21T11:01:42.009Z,2.50
2017-11-21T11:02:47.500Z,2.50
2017-11-21T11:03:53.309Z,2.75
2017-11-21T11:04:58.808Z,2.47
2017-11-21T11:06:04.009Z,2.50
2017-11-21T11:07:09.259Z,1.80
2017-11-21T11:08:14.453Z,2.42
2017-11-21T11:09:19.891Z,2.42
2017-11-21T11:10:26.017Z,2.00
2017-11-21T11:11:31.763Z,1.92
2017-11-21T11:12:37.539Z,1.85
2017-11-21T11:13:43.290Z,2.20
2017-11-21T11:14:48.741Z,1.75
2017-11-21T11:16:03.991Z,2.35
2017-11-21T11:17:11.637Z,3.15
2017-11-21T11:18:17.407Z,2.30
2017-11-21T11:19:23.165Z,1.65
2017-11-21T11:20:28.881Z,2.08
2017-11-21T11:21:34.463Z,1.80
2017-11-21T11:22:39.900Z,1.98
2017-11-21T11:23:45.294Z,1.83
2017-11-21T11:24:50.764Z,2.45
2017-11-21T11:25:55.958Z,2.60
2017-11-21T11:27:01.366Z,2.10
2017-11-21T11:28:08.686Z,2.55
2017-11-21T11:29:14.199Z,2.45
2017-11-21T11:30:19.977Z,2.00
2017-11-21T11:31:25.386Z,2.25
2017-11-21T11:32:31.164Z,2.55
2017-11-21T11:33:36.600Z,2.10
2017-11-21T11:34:42.420Z,3.05
2017-11-21T11:35:47.841Z,2.58
2017-11-21T11:36:53.247Z,2.60
2017-11-21T11:37:58.991Z,2.50
2017-11-21T11:39:04.493Z,4.53
2017-11-21T11:40:09.942Z,2.37
2017-11-21T11:41:15.154Z,2.25
2017-11-21T11:42:21.233Z,2.40
2017-11-21T11:43:26.629Z,2.60
2017-11-21T11:44:32.040Z,2.92
2017-11-21T11:45:37.230Z,2.45
2017-11-21T11:46:42.643Z,2.65
2017-11-21T11:47:48.047Z,2.60
2017-11-21T11:48:54.017Z,2.28
2017-11-21T11:50:00.080Z,3.05
2017-11-21T11:51:05.814Z,2.65
2017-11-21T11:52:11.185Z,4.53
2017-11-21T11:53:16.935Z,2.33
2017-11-21T11:54:22.100Z,3.92
2017-11-21T11:55:27.838Z,1.92
2017-11-21T11:56:33.272Z,1.75
2017-11-21T11:57:46.024Z,2.42
2017-11-21T11:58:51.408Z,2.20
2017-11-21T11:59:56.627Z,3.22
2017-11-21T12:01:02.044Z,2.20
2017-11-21T12:02:07.953Z,2.10
2017-11-21T12:03:13.332Z,3.55
2017-11-21T12:04:18.527Z,1.80
2017-11-21T12:05:23.733Z,2.05
2017-11-21T12:06:29.217Z,1.85
2017-11-21T12:07:34.411Z,2.67
2017-11-21T12:08:39.612Z,1.70
2017-11-21T12:09:44.817Z,3.40
2017-11-21T12:10:50.249Z,1.80
2017-11-21T12:11:55.698Z,1.70
2017-11-21T12:13:01.129Z,1.92
2017-11-21T12:14:06.331Z,2.00
2017-11-21T12:15:11.857Z,2.35
2017-11-21T12:16:17.101Z,1.92
2017-11-21T12:17:22.505Z,2.30
2017-11-21T12:18:28.229Z,1.60
2017-11-21T12:19:33.475Z,1.70
2017-11-21T12:20:38.912Z,1.70
2017-11-21T12:21:44.075Z,1.70
2017-11-21T12:22:49.295Z,2.00
2017-11-21T12:23:54.684Z,2.00
2017-11-21T12:24:59.865Z,1.98
2017-11-21T12:26:05.090Z,1.70
2017-11-21T12:27:10.570Z,1.92
2017-11-21T12:28:15.779Z,2.03
2017-11-21T12:29:21.153Z,2.97
2017-11-21T12:30:26.560Z,2.17
2017-11-21T12:31:31.746Z,2.10
2017-11-21T12:32:36.999Z,1.98
2017-11-21T12:33:42.302Z,1.70
2017-11-21T12:34:47.579Z,1.75
2017-11-21T12:35:52.829Z,2.40
2017-11-21T12:36:58.019Z,1.73
2017-11-21T12:38:03.246Z,2.55
2017-11-21T12:39:08.491Z,2.20
2017-11-21T12:40:13.837Z,1.90
2017-11-21T12:41:19.113Z,2.30
2017-11-21T12:42:24.355Z,1.60
2017-11-21T12:43:29.803Z,1.80
2017-11-21T12:44:35.367Z,1.50
2017-11-21T12:45:40.574Z,2.30
2017-11-21T12:46:45.797Z,3.78
2017-11-21T12:47:50.960Z,1.40
2017-11-21T12:48:56.408Z,1.65
2017-11-21T12:50:01.840Z,1.62
2017-11-21T12:51:07.041Z,1.50
2017-11-21T12:52:16.575Z,1.48
2017-11-21T12:53:21.792Z,1.60
2017-11-21T12:54:26.987Z,1.60
2017-11-21T12:55:39.753Z,1.80
2017-11-21T12:56:44.935Z,1.58
2017-11-21T12:57:50.352Z,1.50
2017-11-21T12:58:56.072Z,1.90
2017-11-21T13:00:01.248Z,1.58
2017-11-21T13:01:06.506Z,1.55
2017-11-21T13:02:11.976Z,1.42
2017-11-21T13:03:17.191Z,2.08
2017-11-21T13:04:22.377Z,2.58
2017-11-21T13:05:27.574Z,1.70
2017-11-21T13:06:33.165Z,1.85
2017-11-21T13:07:38.698Z,2.20
2017-11-21T13:08:43.987Z,3.25
2017-11-21T13:09:49.398Z,2.03
2017-11-21T13:10:54.595Z,2.00
2017-11-21T13:12:02.808Z,1.85
2017-11-21T13:13:08.025Z,1.70
2017-11-21T13:14:13.229Z,2.08
2017-11-21T13:15:18.649Z,1.80
2017-11-21T13:16:23.868Z,2.00
2017-11-21T13:17:29.098Z,2.42
2017-11-21T13:18:34.484Z,2.35
2017-11-21T13:19:39.872Z,2.00
2017-11-21T13:20:45.288Z,2.60
2017-11-21T13:21:50.588Z,2.55
2017-11-21T13:22:56.057Z,2.03
2017-11-21T13:24:01.498Z,2.10
2017-11-21T13:25:06.675Z,2.10
2017-11-21T13:26:12.537Z,2.15
2017-11-21T13:27:17.747Z,2.05
2017-11-21T13:28:22.951Z,2.12
2017-11-21T13:29:28.171Z,2.65
2017-11-21T13:30:33.353Z,1.83
2017-11-21T13:31:38.524Z,2.10
2017-11-21T13:32:43.700Z,2.08
2017-11-21T13:33:48.923Z,1.90
2017-11-21T13:34:54.365Z,2.00
2017-11-21T13:35:59.570Z,2.60
2017-11-21T13:37:05.032Z,2.53
2017-11-21T13:38:10.265Z,2.28
2017-11-21T13:39:15.486Z,2.20
2017-11-21T13:40:20.733Z,1.70
2017-11-21T13:41:27.111Z,1.90
2017-11-21T13:42:32.535Z,2.28
2017-11-21T13:43:37.746Z,2.10
2017-11-21T13:44:43.033Z,2.03
2017-11-21T13:45:48.280Z,2.37
2017-11-21T13:46:53.823Z,2.22
2017-11-21T13:47:59.088Z,3.40
2017-11-21T13:49:04.516Z,2.17
2017-11-21T13:50:09.735Z,2.30
2017-11-21T13:51:14.964Z,2.47
2017-11-21T13:52:20.285Z,1.70
2017-11-21T13:53:25.727Z,1.95
2017-11-21T13:54:31.192Z,1.52
2017-11-21T13:55:36.388Z,2.00
2017-11-21T13:56:41.894Z,2.05
2017-11-21T13:57:47.313Z,2.85
2017-11-21T13:58:52.763Z,2.20
2017-11-21T13:59:57.987Z,2.20
2017-11-21T14:01:03.272Z,2.47
2017-11-21T14:02:08.872Z,2.62
2017-11-21T14:03:14.058Z,2.67
2017-11-21T14:04:19.334Z,2.92
2017-11-21T14:05:30.476Z,2.45
2017-11-21T14:06:35.680Z,2.53
2017-11-21T14:07:41.082Z,2.30
2017-11-21T14:08:46.399Z,1.85
2017-11-21T14:09:51.807Z,2.37
2017-11-21T14:10:57.056Z,1.95
2017-11-21T14:12:02.540Z,2.70
2017-11-21T14:13:08.025Z,2.30
2017-11-21T14:14:13.472Z,2.42
2017-11-21T14:15:19.783Z,2.30
2017-11-21T14:16:25.175Z,2.65
2017-11-21T14:17:30.594Z,2.22
2017-11-21T14:18:35.804Z,2.80
2017-11-21T14:19:41.127Z,4.12
2017-11-21T14:20:46.307Z,3.40
2017-11-21T14:21:51.536Z,3.67
2017-11-21T14:22:57.650Z,2.90
2017-11-21T14:24:02.887Z,2.78
2017-11-21T14:25:08.634Z,3.40
2017-11-21T14:26:14.361Z,3.20
2017-11-21T14:27:19.804Z,3.30
2017-11-21T14:28:25.245Z,3.78
2017-11-21T14:29:30.716Z,3.70
2017-11-21T14:30:36.129Z,2.92
2017-11-21T14:31:41.660Z,4.90
2017-11-21T14:32:47.785Z,3.50
2017-11-21T14:33:53.219Z,4.00
2017-11-21T14:34:58.600Z,2.85
2017-11-21T14:36:04.420Z,3.00